sensor_id;sensor_type;location;lat;lon;timestamp;P1;durP1;ratioP1;P2;durP2;ratioP2
40515;SDS011;26216;53.724;9.898;2023-08-30T00:00:46;0.88;;;0.70;;
40515;SDS011;26216;53.724;9.898;2023-08-30T00:03:13;1.33;;;1.08;;
40515;SDS011;26216;53.724;9.898;2023-08-30T00:05:40;2.22;;;1.08;;
40515;SDS011;26216;53.724;9.898;2023-08-30T00:08:06;0.80;;;0.70;;
40515;SDS011;26216;53.724;9.898;2023-08-30T00:10:33;1.02;;;0.80;;
40515;SDS011;26216;53.724;9.898;2023-08-30T00:12:59;0.88;;;0.82;;
40515;SDS011;26216;53.724;9.898;2023-08-30T00:15:25;3.95;;;1.20;;
40515;SDS011;26216;53.724;9.898;2023-08-30T00:17:51;1.10;;;0.80;;
40515;SDS011;26216;53.724;9.898;2023-08-30T00:20:20;2.13;;;0.98;;
40515;SDS011;26216;53.724;9.898;2023-08-30T00:22:46;2.20;;;0.80;;
40515;SDS011;26216;53.724;9.898;2023-08-30T00:25:13;0.93;;;0.90;;
40515;SDS011;26216;53.724;9.898;2023-08-30T00:27:41;1.80;;;0.88;;
40515;SDS011;26216;53.724;9.898;2023-08-30T00:30:07;1.25;;;0.77;;
40515;SDS011;26216;53.724;9.898;2023-08-30T00:32:34;0.80;;;0.80;;
40515;SDS011;26216;53.724;9.898;2023-08-30T00:35:00;1.13;;;0.75;;
40515;SDS011;26216;53.724;9.898;2023-08-30T00:37:26;1.13;;;1.00;;
40515;SDS011;26216;53.724;9.898;2023-08-30T00:39:52;1.23;;;0.80;;
40515;SDS011;26216;53.724;9.898;2023-08-30T00:42:18;1.98;;;1.30;;
40515;SDS011;26216;53.724;9.898;2023-08-30T00:44:44;1.50;;;1.10;;
40515;SDS011;26216;53.724;9.898;2023-08-30T00:47:10;1.70;;;1.02;;
40515;SDS011;26216;53.724;9.898;2023-08-30T00:49:36;1.23;;;1.08;;
40515;SDS011;26216;53.724;9.898;2023-08-30T00:52:03;1.90;;;1.20;;
40515;SDS011;26216;53.724;9.898;2023-08-30T00:54:32;1.25;;;1.05;;
40515;SDS011;26216;53.724;9.898;2023-08-30T00:56:59;1.75;;;1.20;;
40515;SDS011;26216;53.724;9.898;2023-08-30T00:59:26;1.65;;;1.23;;
40515;SDS011;26216;53.724;9.898;2023-08-30T01:01:52;1.75;;;1.25;;
40515;SDS011;26216;53.724;9.898;2023-08-30T01:04:20;1.20;;;1.00;;
40515;SDS011;26216;53.724;9.898;2023-08-30T01:06:46;2.08;;;1.50;;
40515;SDS011;26216;53.724;9.898;2023-08-30T01:09:14;1.80;;;1.50;;
40515;SDS011;26216;53.724;9.898;2023-08-30T01:11:49;2.15;;;1.50;;
40515;SDS011;26216;53.724;9.898;2023-08-30T01:14:31;2.00;;;1.38;;
40515;SDS011;26216;53.724;9.898;2023-08-30T01:17:05;1.60;;;1.15;;
40515;SDS011;26216;53.724;9.898;2023-08-30T01:27:39;1.77;;;1.30;;
40515;SDS011;26216;53.724;9.898;2023-08-30T01:30:06;2.25;;;1.30;;
40515;SDS011;26216;53.724;9.898;2023-08-30T01:32:34;2.92;;;1.45;;
40515;SDS011;26216;53.724;9.898;2023-08-30T01:35:02;1.75;;;1.20;;
40515;SDS011;26216;53.724;9.898;2023-08-30T01:37:28;2.00;;;1.33;;
40515;SDS011;26216;53.724;9.898;2023-08-30T01:39:56;1.60;;;1.20;;
40515;SDS011;26216;53.724;9.898;2023-08-30T01:42:25;2.25;;;1.30;;
40515;SDS011;26216;53.724;9.898;2023-08-30T01:44:52;2.25;;;1.17;;
40515;SDS011;26216;53.724;9.898;2023-08-30T01:47:23;3.30;;;1.17;;
40515;SDS011;26216;53.724;9.898;2023-08-30T01:49:50;1.17;;;0.98;;
40515;SDS011;26216;53.724;9.898;2023-08-30T01:52:18;1.48;;;1.08;;
40515;SDS011;26216;53.724;9.898;2023-08-30T01:54:45;1.60;;;1.30;;
40515;SDS011;26216;53.724;9.898;2023-08-30T01:57:12;1.50;;;1.20;;
40515;SDS011;26216;53.724;9.898;2023-08-30T01:59:38;1.85;;;1.35;;
40515;SDS011;26216;53.724;9.898;2023-08-30T02:02:04;3.80;;;1.60;;
40515;SDS011;26216;53.724;9.898;2023-08-30T02:04:30;4.55;;;1.80;;
40515;SDS011;26216;53.724;9.898;2023-08-30T02:07:02;2.08;;;1.30;;
40515;SDS011;26216;53.724;9.898;2023-08-30T02:09:40;2.15;;;1.40;;
40515;SDS011;26216;53.724;9.898;2023-08-30T02:12:20;2.65;;;1.38;;
40515;SDS011;26216;53.724;9.898;2023-08-30T02:14:50;2.30;;;1.70;;
40515;SDS011;26216;53.724;9.898;2023-08-30T02:17:17;1.90;;;1.50;;
40515;SDS011;26216;53.724;9.898;2023-08-30T02:19:44;2.25;;;1.85;;
40515;SDS011;26216;53.724;9.898;2023-08-30T02:22:10;3.00;;;1.77;;
40515;SDS011;26216;53.724;9.898;2023-08-30T02:24:37;1.65;;;1.30;;
40515;SDS011;26216;53.724;9.898;2023-08-30T02:27:03;2.50;;;2.03;;
40515;SDS011;26216;53.724;9.898;2023-08-30T02:29:29;2.40;;;1.65;;
40515;SDS011;26216;53.724;9.898;2023-08-30T02:31:55;3.47;;;1.83;;
40515;SDS011;26216;53.724;9.898;2023-08-30T02:34:21;2.90;;;1.92;;
40515;SDS011;26216;53.724;9.898;2023-08-30T02:36:46;2.50;;;1.70;;
40515;SDS011;26216;53.724;9.898;2023-08-30T02:39:13;2.50;;;1.90;;
40515;SDS011;26216;53.724;9.898;2023-08-30T02:41:40;2.20;;;1.70;;
40515;SDS011;26216;53.724;9.898;2023-08-30T02:44:11;2.22;;;1.70;;
40515;SDS011;26216;53.724;9.898;2023-08-30T02:46:37;3.35;;;1.75;;
40515;SDS011;26216;53.724;9.898;2023-08-30T02:49:03;3.15;;;1.90;;
40515;SDS011;26216;53.724;9.898;2023-08-30T02:51:28;3.58;;;2.13;;
40515;SDS011;26216;53.724;9.898;2023-08-30T02:53:54;2.50;;;1.92;;
40515;SDS011;26216;53.724;9.898;2023-08-30T02:56:21;2.47;;;1.77;;
40515;SDS011;26216;53.724;9.898;2023-08-30T02:58:47;2.78;;;1.90;;
40515;SDS011;26216;53.724;9.898;2023-08-30T03:01:13;2.25;;;1.70;;
40515;SDS011;26216;53.724;9.898;2023-08-30T03:03:39;3.17;;;1.80;;
40515;SDS011;26216;53.724;9.898;2023-08-30T03:06:05;2.17;;;1.70;;
40515;SDS011;26216;53.724;9.898;2023-08-30T03:08:30;1.98;;;1.50;;
40515;SDS011;26216;53.724;9.898;2023-08-30T03:11:07;1.77;;;1.58;;
40515;SDS011;26216;53.724;9.898;2023-08-30T03:13:36;2.35;;;1.60;;
40515;SDS011;26216;53.724;9.898;2023-08-30T03:16:12;2.83;;;1.70;;
40515;SDS011;26216;53.724;9.898;2023-08-30T03:18:39;2.28;;;1.80;;
40515;SDS011;26216;53.724;9.898;2023-08-30T03:21:06;2.97;;;1.70;;
40515;SDS011;26216;53.724;9.898;2023-08-30T03:23:32;2.35;;;1.75;;
40515;SDS011;26216;53.724;9.898;2023-08-30T03:26:08;1.85;;;1.52;;
40515;SDS011;26216;53.724;9.898;2023-08-30T03:28:38;2.13;;;1.70;;
40515;SDS011;26216;53.724;9.898;2023-08-30T03:31:14;2.95;;;1.98;;
40515;SDS011;26216;53.724;9.898;2023-08-30T03:33:41;2.70;;;2.08;;
40515;SDS011;26216;53.724;9.898;2023-08-30T03:36:08;3.13;;;2.17;;
40515;SDS011;26216;53.724;9.898;2023-08-30T03:38:37;2.08;;;1.58;;
40515;SDS011;26216;53.724;9.898;2023-08-30T03:41:04;5.10;;;2.38;;
40515;SDS011;26216;53.724;9.898;2023-08-30T03:43:30;4.68;;;2.30;;
40515;SDS011;26216;53.724;9.898;2023-08-30T03:45:57;2.58;;;2.13;;
40515;SDS011;26216;53.724;9.898;2023-08-30T03:48:24;2.67;;;2.20;;
40515;SDS011;26216;53.724;9.898;2023-08-30T03:50:50;2.92;;;2.63;;
40515;SDS011;26216;53.724;9.898;2023-08-30T03:53:16;2.70;;;2.17;;
40515;SDS011;26216;53.724;9.898;2023-08-30T03:55:42;2.63;;;2.25;;
40515;SDS011;26216;53.724;9.898;2023-08-30T03:58:08;2.97;;;2.53;;
40515;SDS011;26216;53.724;9.898;2023-08-30T04:00:37;4.00;;;2.78;;
40515;SDS011;26216;53.724;9.898;2023-08-30T04:03:04;3.25;;;2.50;;
40515;SDS011;26216;53.724;9.898;2023-08-30T04:05:34;2.85;;;2.28;;
40515;SDS011;26216;53.724;9.898;2023-08-30T04:08:06;2.95;;;2.35;;
40515;SDS011;26216;53.724;9.898;2023-08-30T04:10:39;3.55;;;2.58;;
40515;SDS011;26216;53.724;9.898;2023-08-30T04:13:06;3.50;;;2.80;;
40515;SDS011;26216;53.724;9.898;2023-08-30T04:15:36;3.63;;;2.78;;
40515;SDS011;26216;53.724;9.898;2023-08-30T04:18:03;3.75;;;3.10;;
40515;SDS011;26216;53.724;9.898;2023-08-30T04:20:30;3.03;;;2.38;;
40515;SDS011;26216;53.724;9.898;2023-08-30T04:22:57;3.10;;;2.47;;
40515;SDS011;26216;53.724;9.898;2023-08-30T04:25:26;2.45;;;2.25;;
40515;SDS011;26216;53.724;9.898;2023-08-30T04:27:53;3.00;;;2.35;;
40515;SDS011;26216;53.724;9.898;2023-08-30T04:30:18;2.92;;;2.33;;
40515;SDS011;26216;53.724;9.898;2023-08-30T04:32:44;3.25;;;2.50;;
40515;SDS011;26216;53.724;9.898;2023-08-30T04:35:10;2.63;;;2.25;;
40515;SDS011;26216;53.724;9.898;2023-08-30T04:37:36;3.67;;;2.20;;
40515;SDS011;26216;53.724;9.898;2023-08-30T04:40:03;3.17;;;2.25;;
40515;SDS011;26216;53.724;9.898;2023-08-30T04:42:36;2.75;;;2.17;;
40515;SDS011;26216;53.724;9.898;2023-08-30T04:45:03;2.90;;;2.15;;
40515;SDS011;26216;53.724;9.898;2023-08-30T04:47:29;2.75;;;2.08;;
40515;SDS011;26216;53.724;9.898;2023-08-30T04:49:56;3.47;;;2.20;;
40515;SDS011;26216;53.724;9.898;2023-08-30T04:52:22;2.60;;;2.08;;
40515;SDS011;26216;53.724;9.898;2023-08-30T04:54:48;2.20;;;1.88;;
40515;SDS011;26216;53.724;9.898;2023-08-30T04:57:14;2.22;;;1.90;;
40515;SDS011;26216;53.724;9.898;2023-08-30T04:59:41;2.70;;;2.05;;
40515;SDS011;26216;53.724;9.898;2023-08-30T05:02:08;3.53;;;2.00;;
40515;SDS011;26216;53.724;9.898;2023-08-30T05:04:34;3.72;;;2.30;;
40515;SDS011;26216;53.724;9.898;2023-08-30T05:07:00;3.28;;;2.10;;
40515;SDS011;26216;53.724;9.898;2023-08-30T05:09:26;2.45;;;1.90;;
40515;SDS011;26216;53.724;9.898;2023-08-30T05:11:52;2.47;;;1.80;;
40515;SDS011;26216;53.724;9.898;2023-08-30T05:14:19;3.72;;;2.38;;
40515;SDS011;26216;53.724;9.898;2023-08-30T05:16:45;2.50;;;2.00;;
40515;SDS011;26216;53.724;9.898;2023-08-30T05:19:11;2.30;;;1.90;;
40515;SDS011;26216;53.724;9.898;2023-08-30T05:21:37;2.78;;;1.90;;
40515;SDS011;26216;53.724;9.898;2023-08-30T05:24:03;2.97;;;2.28;;
40515;SDS011;26216;53.724;9.898;2023-08-30T05:26:32;2.85;;;2.10;;
40515;SDS011;26216;53.724;9.898;2023-08-30T05:28:58;3.15;;;2.00;;
40515;SDS011;26216;53.724;9.898;2023-08-30T05:31:24;2.60;;;2.20;;
40515;SDS011;26216;53.724;9.898;2023-08-30T05:33:50;3.40;;;1.92;;
40515;SDS011;26216;53.724;9.898;2023-08-30T05:36:16;4.45;;;2.72;;
40515;SDS011;26216;53.724;9.898;2023-08-30T05:38:42;3.45;;;2.58;;
40515;SDS011;26216;53.724;9.898;2023-08-30T05:41:08;3.03;;;2.15;;
40515;SDS011;26216;53.724;9.898;2023-08-30T05:43:34;3.20;;;2.38;;
40515;SDS011;26216;53.724;9.898;2023-08-30T05:46:00;3.47;;;2.35;;
40515;SDS011;26216;53.724;9.898;2023-08-30T05:48:29;3.65;;;2.22;;
40515;SDS011;26216;53.724;9.898;2023-08-30T05:50:56;3.35;;;2.28;;
40515;SDS011;26216;53.724;9.898;2023-08-30T05:53:22;2.88;;;2.33;;
40515;SDS011;26216;53.724;9.898;2023-08-30T05:55:48;3.13;;;2.50;;
40515;SDS011;26216;53.724;9.898;2023-08-30T05:58:14;3.10;;;2.55;;
40515;SDS011;26216;53.724;9.898;2023-08-30T06:00:41;3.80;;;2.75;;
40515;SDS011;26216;53.724;9.898;2023-08-30T06:03:07;3.88;;;3.00;;
40515;SDS011;26216;53.724;9.898;2023-08-30T06:05:33;3.10;;;2.65;;
40515;SDS011;26216;53.724;9.898;2023-08-30T06:07:59;3.00;;;2.60;;
40515;SDS011;26216;53.724;9.898;2023-08-30T06:10:26;2.90;;;2.40;;
40515;SDS011;26216;53.724;9.898;2023-08-30T06:12:52;3.38;;;2.53;;
40515;SDS011;26216;53.724;9.898;2023-08-30T06:15:18;4.18;;;2.45;;
40515;SDS011;26216;53.724;9.898;2023-08-30T06:17:44;4.35;;;2.78;;
40515;SDS011;26216;53.724;9.898;2023-08-30T06:20:11;2.83;;;2.22;;
40515;SDS011;26216;53.724;9.898;2023-08-30T06:22:37;4.03;;;2.58;;
40515;SDS011;26216;53.724;9.898;2023-08-30T06:25:04;3.30;;;2.58;;
40515;SDS011;26216;53.724;9.898;2023-08-30T06:27:32;3.42;;;2.42;;
40515;SDS011;26216;53.724;9.898;2023-08-30T06:29:57;2.95;;;2.20;;
40515;SDS011;26216;53.724;9.898;2023-08-30T06:32:23;3.17;;;2.30;;
40515;SDS011;26216;53.724;9.898;2023-08-30T06:34:49;3.10;;;2.38;;
40515;SDS011;26216;53.724;9.898;2023-08-30T06:37:15;3.28;;;2.40;;
40515;SDS011;26216;53.724;9.898;2023-08-30T06:39:42;7.05;;;2.60;;
40515;SDS011;26216;53.724;9.898;2023-08-30T06:42:08;3.75;;;2.70;;
40515;SDS011;26216;53.724;9.898;2023-08-30T06:44:34;2.65;;;2.40;;
40515;SDS011;26216;53.724;9.898;2023-08-30T06:47:00;2.88;;;2.42;;
40515;SDS011;26216;53.724;9.898;2023-08-30T06:49:25;3.03;;;2.70;;
40515;SDS011;26216;53.724;9.898;2023-08-30T06:51:51;3.55;;;2.22;;
40515;SDS011;26216;53.724;9.898;2023-08-30T06:54:17;2.90;;;2.58;;
40515;SDS011;26216;53.724;9.898;2023-08-30T06:56:56;2.60;;;1.98;;
40515;SDS011;26216;53.724;9.898;2023-08-30T06:59:23;2.90;;;2.30;;
40515;SDS011;26216;53.724;9.898;2023-08-30T07:01:49;2.88;;;2.35;;
40515;SDS011;26216;53.724;9.898;2023-08-30T07:04:15;3.90;;;2.67;;
40515;SDS011;26216;53.724;9.898;2023-08-30T07:06:40;2.95;;;2.30;;
40515;SDS011;26216;53.724;9.898;2023-08-30T07:09:06;3.47;;;2.70;;
40515;SDS011;26216;53.724;9.898;2023-08-30T07:11:33;3.67;;;3.25;;
40515;SDS011;26216;53.724;9.898;2023-08-30T07:13:59;4.57;;;4.15;;
40515;SDS011;26216;53.724;9.898;2023-08-30T07:16:25;5.10;;;4.15;;
40515;SDS011;26216;53.724;9.898;2023-08-30T07:18:51;4.63;;;4.15;;
40515;SDS011;26216;53.724;9.898;2023-08-30T07:21:17;3.58;;;3.15;;
40515;SDS011;26216;53.724;9.898;2023-08-30T07:23:44;4.20;;;3.22;;
40515;SDS011;26216;53.724;9.898;2023-08-30T07:26:09;3.17;;;2.88;;
40515;SDS011;26216;53.724;9.898;2023-08-30T07:28:35;4.43;;;3.72;;
40515;SDS011;26216;53.724;9.898;2023-08-30T07:31:02;4.85;;;3.17;;
40515;SDS011;26216;53.724;9.898;2023-08-30T07:33:31;3.95;;;2.80;;
40515;SDS011;26216;53.724;9.898;2023-08-30T07:35:58;3.22;;;2.67;;
40515;SDS011;26216;53.724;9.898;2023-08-30T07:38:24;4.20;;;3.08;;
40515;SDS011;26216;53.724;9.898;2023-08-30T07:40:50;3.83;;;3.42;;
40515;SDS011;26216;53.724;9.898;2023-08-30T07:43:16;4.57;;;3.80;;
40515;SDS011;26216;53.724;9.898;2023-08-30T07:45:42;3.90;;;3.13;;
40515;SDS011;26216;53.724;9.898;2023-08-30T07:48:07;4.07;;;2.92;;
40515;SDS011;26216;53.724;9.898;2023-08-30T07:50:33;4.35;;;3.35;;
40515;SDS011;26216;53.724;9.898;2023-08-30T07:52:59;5.25;;;3.10;;
40515;SDS011;26216;53.724;9.898;2023-08-30T07:55:25;4.40;;;3.85;;
40515;SDS011;26216;53.724;9.898;2023-08-30T07:57:50;4.20;;;3.80;;
40515;SDS011;26216;53.724;9.898;2023-08-30T08:00:16;4.57;;;3.13;;
40515;SDS011;26216;53.724;9.898;2023-08-30T08:02:42;4.10;;;3.70;;
40515;SDS011;26216;53.724;9.898;2023-08-30T08:05:08;4.70;;;3.90;;
40515;SDS011;26216;53.724;9.898;2023-08-30T08:07:37;5.25;;;4.10;;
40515;SDS011;26216;53.724;9.898;2023-08-30T08:10:04;3.70;;;3.30;;
40515;SDS011;26216;53.724;9.898;2023-08-30T08:12:32;4.00;;;3.60;;
40515;SDS011;26216;53.724;9.898;2023-08-30T08:14:58;3.72;;;3.03;;
40515;SDS011;26216;53.724;9.898;2023-08-30T08:17:24;3.85;;;3.35;;
40515;SDS011;26216;53.724;9.898;2023-08-30T08:19:50;3.83;;;3.00;;
40515;SDS011;26216;53.724;9.898;2023-08-30T08:22:16;3.83;;;3.40;;
40515;SDS011;26216;53.724;9.898;2023-08-30T08:24:42;4.60;;;3.90;;
40515;SDS011;26216;53.724;9.898;2023-08-30T08:27:11;4.05;;;3.65;;
40515;SDS011;26216;53.724;9.898;2023-08-30T08:29:37;3.92;;;3.15;;
40515;SDS011;26216;53.724;9.898;2023-08-30T08:32:03;4.05;;;3.50;;
40515;SDS011;26216;53.724;9.898;2023-08-30T08:34:29;4.75;;;3.47;;
40515;SDS011;26216;53.724;9.898;2023-08-30T08:36:55;4.88;;;3.80;;
40515;SDS011;26216;53.724;9.898;2023-08-30T08:39:21;5.65;;;4.13;;
40515;SDS011;26216;53.724;9.898;2023-08-30T08:41:47;5.85;;;4.88;;
40515;SDS011;26216;53.724;9.898;2023-08-30T08:44:14;4.82;;;4.00;;
40515;SDS011;26216;53.724;9.898;2023-08-30T08:46:41;4.03;;;3.55;;
40515;SDS011;26216;53.724;9.898;2023-08-30T08:49:08;4.32;;;3.50;;
40515;SDS011;26216;53.724;9.898;2023-08-30T08:51:36;4.45;;;3.50;;
40515;SDS011;26216;53.724;9.898;2023-08-30T08:54:03;3.78;;;2.95;;
40515;SDS011;26216;53.724;9.898;2023-08-30T08:56:32;4.45;;;3.08;;
40515;SDS011;26216;53.724;9.898;2023-08-30T08:59:01;4.85;;;3.90;;
40515;SDS011;26216;53.724;9.898;2023-08-30T09:01:27;4.10;;;3.40;;
40515;SDS011;26216;53.724;9.898;2023-08-30T09:03:54;4.50;;;3.75;;
40515;SDS011;26216;53.724;9.898;2023-08-30T09:06:20;5.38;;;4.10;;
40515;SDS011;26216;53.724;9.898;2023-08-30T09:08:48;4.97;;;3.85;;
40515;SDS011;26216;53.724;9.898;2023-08-30T09:11:14;3.90;;;3.08;;
40515;SDS011;26216;53.724;9.898;2023-08-30T09:13:42;3.60;;;2.92;;
40515;SDS011;26216;53.724;9.898;2023-08-30T09:16:12;3.55;;;2.40;;
40515;SDS011;26216;53.724;9.898;2023-08-30T09:18:41;3.05;;;2.22;;
40515;SDS011;26216;53.724;9.898;2023-08-30T09:21:08;3.75;;;2.80;;
40515;SDS011;26216;53.724;9.898;2023-08-30T09:23:35;4.53;;;3.30;;
40515;SDS011;26216;53.724;9.898;2023-08-30T09:26:01;3.80;;;2.90;;
40515;SDS011;26216;53.724;9.898;2023-08-30T09:28:28;3.70;;;2.50;;
40515;SDS011;26216;53.724;9.898;2023-08-30T09:30:54;4.25;;;2.65;;
40515;SDS011;26216;53.724;9.898;2023-08-30T09:33:22;3.50;;;2.50;;
40515;SDS011;26216;53.724;9.898;2023-08-30T09:35:56;3.20;;;2.60;;
40515;SDS011;26216;53.724;9.898;2023-08-30T09:38:21;2.92;;;2.40;;
40515;SDS011;26216;53.724;9.898;2023-08-30T09:40:48;3.03;;;2.20;;
40515;SDS011;26216;53.724;9.898;2023-08-30T09:43:17;3.35;;;2.15;;
40515;SDS011;26216;53.724;9.898;2023-08-30T09:45:44;3.13;;;2.30;;
40515;SDS011;26216;53.724;9.898;2023-08-30T09:48:10;3.15;;;2.60;;
40515;SDS011;26216;53.724;9.898;2023-08-30T09:50:36;2.03;;;1.83;;
40515;SDS011;26216;53.724;9.898;2023-08-30T09:53:07;3.17;;;1.67;;
40515;SDS011;26216;53.724;9.898;2023-08-30T09:55:35;2.58;;;1.90;;
40515;SDS011;26216;53.724;9.898;2023-08-30T09:58:01;3.85;;;2.70;;
40515;SDS011;26216;53.724;9.898;2023-08-30T10:00:29;2.45;;;1.88;;
40515;SDS011;26216;53.724;9.898;2023-08-30T10:03:01;3.08;;;2.10;;
40515;SDS011;26216;53.724;9.898;2023-08-30T10:05:28;3.20;;;1.90;;
40515;SDS011;26216;53.724;9.898;2023-08-30T10:07:56;2.90;;;1.65;;
40515;SDS011;26216;53.724;9.898;2023-08-30T10:10:23;2.22;;;1.90;;
40515;SDS011;26216;53.724;9.898;2023-08-30T10:12:52;3.03;;;2.58;;
40515;SDS011;26216;53.724;9.898;2023-08-30T10:15:20;3.20;;;2.05;;
40515;SDS011;26216;53.724;9.898;2023-08-30T10:17:48;2.92;;;2.22;;
40515;SDS011;26216;53.724;9.898;2023-08-30T10:54:37;4.13;;;2.35;;
40515;SDS011;26216;53.724;9.898;2023-08-30T10:57:12;4.68;;;3.13;;
40515;SDS011;26216;53.724;9.898;2023-08-30T10:59:39;3.22;;;2.38;;
40515;SDS011;26216;53.724;9.898;2023-08-30T11:02:06;3.30;;;2.90;;
40515;SDS011;26216;53.724;9.898;2023-08-30T11:04:32;3.50;;;2.75;;
40515;SDS011;26216;53.724;9.898;2023-08-30T11:06:58;4.53;;;3.03;;
40515;SDS011;26216;53.724;9.898;2023-08-30T11:09:24;4.30;;;2.97;;
40515;SDS011;26216;53.724;9.898;2023-08-30T11:11:51;3.28;;;2.70;;
40515;SDS011;26216;53.724;9.898;2023-08-30T11:14:17;3.60;;;2.30;;
40515;SDS011;26216;53.724;9.898;2023-08-30T11:16:44;3.55;;;2.53;;
40515;SDS011;26216;53.724;9.898;2023-08-30T11:19:10;5.32;;;3.25;;
40515;SDS011;26216;53.724;9.898;2023-08-30T11:21:38;4.57;;;2.97;;
40515;SDS011;26216;53.724;9.898;2023-08-30T11:24:06;3.65;;;3.28;;
40515;SDS011;26216;53.724;9.898;2023-08-30T11:26:32;4.00;;;2.88;;
40515;SDS011;26216;53.724;9.898;2023-08-30T11:29:05;5.00;;;2.95;;
40515;SDS011;26216;53.724;9.898;2023-08-30T11:31:34;3.00;;;2.60;;
40515;SDS011;26216;53.724;9.898;2023-08-30T11:34:01;3.28;;;2.85;;
40515;SDS011;26216;53.724;9.898;2023-08-30T11:36:31;3.35;;;2.80;;
40515;SDS011;26216;53.724;9.898;2023-08-30T11:38:57;2.57;;;2.30;;
40515;SDS011;26216;53.724;9.898;2023-08-30T11:41:24;3.53;;;2.70;;
40515;SDS011;26216;53.724;9.898;2023-08-30T11:43:51;3.53;;;2.83;;
40515;SDS011;26216;53.724;9.898;2023-08-30T11:46:17;3.08;;;2.30;;
40515;SDS011;26216;53.724;9.898;2023-08-30T11:48:44;2.50;;;2.15;;
40515;SDS011;26216;53.724;9.898;2023-08-30T11:51:12;3.05;;;2.25;;
40515;SDS011;26216;53.724;9.898;2023-08-30T11:53:38;3.75;;;2.20;;
40515;SDS011;26216;53.724;9.898;2023-08-30T11:56:05;3.70;;;3.13;;
40515;SDS011;26216;53.724;9.898;2023-08-30T11:58:35;4.00;;;3.08;;
40515;SDS011;26216;53.724;9.898;2023-08-30T12:01:01;3.10;;;2.30;;
40515;SDS011;26216;53.724;9.898;2023-08-30T12:03:28;3.65;;;2.80;;
40515;SDS011;26216;53.724;9.898;2023-08-30T12:05:55;3.83;;;2.92;;
40515;SDS011;26216;53.724;9.898;2023-08-30T12:08:28;3.40;;;2.80;;
40515;SDS011;26216;53.724;9.898;2023-08-30T12:10:56;2.88;;;2.30;;
40515;SDS011;26216;53.724;9.898;2023-08-30T12:13:26;3.30;;;2.15;;
40515;SDS011;26216;53.724;9.898;2023-08-30T12:15:57;2.83;;;2.10;;
40515;SDS011;26216;53.724;9.898;2023-08-30T12:18:24;3.40;;;2.42;;
40515;SDS011;26216;53.724;9.898;2023-08-30T12:21:03;3.17;;;2.42;;
40515;SDS011;26216;53.724;9.898;2023-08-30T12:23:30;3.63;;;2.60;;
40515;SDS011;26216;53.724;9.898;2023-08-30T12:28:37;2.88;;;2.00;;
40515;SDS011;26216;53.724;9.898;2023-08-30T12:31:09;2.45;;;2.10;;
40515;SDS011;26216;53.724;9.898;2023-08-30T12:33:36;3.03;;;2.30;;
40515;SDS011;26216;53.724;9.898;2023-08-30T12:36:02;3.38;;;2.50;;
40515;SDS011;26216;53.724;9.898;2023-08-30T12:38:29;3.00;;;2.30;;
40515;SDS011;26216;53.724;9.898;2023-08-30T12:40:56;2.90;;;2.20;;
40515;SDS011;26216;53.724;9.898;2023-08-30T12:43:22;3.45;;;2.63;;
40515;SDS011;26216;53.724;9.898;2023-08-30T12:45:49;3.20;;;2.28;;
40515;SDS011;26216;53.724;9.898;2023-08-30T12:48:16;3.03;;;2.15;;
40515;SDS011;26216;53.724;9.898;2023-08-30T12:50:44;3.38;;;2.20;;
40515;SDS011;26216;53.724;9.898;2023-08-30T12:53:11;4.15;;;2.80;;
40515;SDS011;26216;53.724;9.898;2023-08-30T12:55:37;4.43;;;2.67;;
40515;SDS011;26216;53.724;9.898;2023-08-30T12:58:06;2.95;;;2.08;;
40515;SDS011;26216;53.724;9.898;2023-08-30T13:00:33;4.28;;;2.92;;
40515;SDS011;26216;53.724;9.898;2023-08-30T13:02:59;3.38;;;2.72;;
40515;SDS011;26216;53.724;9.898;2023-08-30T13:05:25;5.70;;;4.00;;
40515;SDS011;26216;53.724;9.898;2023-08-30T13:07:52;4.25;;;2.92;;
40515;SDS011;26216;53.724;9.898;2023-08-30T13:10:18;4.25;;;3.38;;
40515;SDS011;26216;53.724;9.898;2023-08-30T13:12:44;4.82;;;2.67;;
40515;SDS011;26216;53.724;9.898;2023-08-30T13:15:10;3.30;;;2.30;;
40515;SDS011;26216;53.724;9.898;2023-08-30T13:17:36;3.20;;;2.25;;
40515;SDS011;26216;53.724;9.898;2023-08-30T13:20:02;4.38;;;3.42;;
40515;SDS011;26216;53.724;9.898;2023-08-30T13:22:29;3.47;;;2.78;;
40515;SDS011;26216;53.724;9.898;2023-08-30T13:24:55;3.28;;;2.47;;
40515;SDS011;26216;53.724;9.898;2023-08-30T13:27:20;2.50;;;2.13;;
40515;SDS011;26216;53.724;9.898;2023-08-30T13:29:46;2.95;;;1.90;;
40515;SDS011;26216;53.724;9.898;2023-08-30T13:32:13;3.63;;;2.60;;
40515;SDS011;26216;53.724;9.898;2023-08-30T13:34:40;3.22;;;2.53;;
40515;SDS011;26216;53.724;9.898;2023-08-30T13:37:08;3.60;;;2.58;;
40515;SDS011;26216;53.724;9.898;2023-08-30T13:39:34;3.45;;;2.10;;
40515;SDS011;26216;53.724;9.898;2023-08-30T13:42:00;2.42;;;1.83;;
40515;SDS011;26216;53.724;9.898;2023-08-30T13:44:26;2.42;;;1.98;;
40515;SDS011;26216;53.724;9.898;2023-08-30T13:46:52;3.50;;;2.33;;
40515;SDS011;26216;53.724;9.898;2023-08-30T13:49:18;3.63;;;2.45;;
40515;SDS011;26216;53.724;9.898;2023-08-30T13:51:45;2.42;;;1.80;;
40515;SDS011;26216;53.724;9.898;2023-08-30T13:54:11;3.10;;;2.20;;
40515;SDS011;26216;53.724;9.898;2023-08-30T13:56:37;3.28;;;2.22;;
40515;SDS011;26216;53.724;9.898;2023-08-30T13:59:03;3.33;;;2.40;;
40515;SDS011;26216;53.724;9.898;2023-08-30T14:01:32;3.58;;;2.40;;
40515;SDS011;26216;53.724;9.898;2023-08-30T14:04:00;2.15;;;1.80;;
40515;SDS011;26216;53.724;9.898;2023-08-30T14:06:26;2.95;;;2.13;;
40515;SDS011;26216;53.724;9.898;2023-08-30T14:08:52;2.40;;;1.95;;
40515;SDS011;26216;53.724;9.898;2023-08-30T14:11:18;2.17;;;1.60;;
40515;SDS011;26216;53.724;9.898;2023-08-30T14:13:46;2.97;;;2.15;;
40515;SDS011;26216;53.724;9.898;2023-08-30T14:16:12;2.90;;;2.00;;
40515;SDS011;26216;53.724;9.898;2023-08-30T14:18:39;3.30;;;2.60;;
40515;SDS011;26216;53.724;9.898;2023-08-30T14:21:06;2.60;;;2.20;;
40515;SDS011;26216;53.724;9.898;2023-08-30T14:23:32;3.00;;;2.58;;
40515;SDS011;26216;53.724;9.898;2023-08-30T14:25:59;3.53;;;2.35;;
40515;SDS011;26216;53.724;9.898;2023-08-30T14:28:26;2.55;;;1.98;;
40515;SDS011;26216;53.724;9.898;2023-08-30T14:30:53;2.45;;;1.95;;
40515;SDS011;26216;53.724;9.898;2023-08-30T14:33:19;3.83;;;2.33;;
40515;SDS011;26216;53.724;9.898;2023-08-30T14:35:45;2.22;;;1.50;;
40515;SDS011;26216;53.724;9.898;2023-08-30T14:38:12;2.40;;;1.77;;
40515;SDS011;26216;53.724;9.898;2023-08-30T14:40:37;2.33;;;1.98;;
40515;SDS011;26216;53.724;9.898;2023-08-30T14:43:04;2.60;;;1.92;;
40515;SDS011;26216;53.724;9.898;2023-08-30T14:45:30;2.90;;;2.20;;
40515;SDS011;26216;53.724;9.898;2023-08-30T14:47:56;2.58;;;1.92;;
40515;SDS011;26216;53.724;9.898;2023-08-30T14:50:22;3.53;;;2.30;;
40515;SDS011;26216;53.724;9.898;2023-08-30T14:52:48;3.78;;;2.75;;
40515;SDS011;26216;53.724;9.898;2023-08-30T14:55:15;2.90;;;1.90;;
40515;SDS011;26216;53.724;9.898;2023-08-30T14:57:41;2.25;;;1.83;;
40515;SDS011;26216;53.724;9.898;2023-08-30T15:00:07;2.83;;;1.75;;
40515;SDS011;26216;53.724;9.898;2023-08-30T15:02:33;2.65;;;1.65;;
40515;SDS011;26216;53.724;9.898;2023-08-30T15:04:59;3.17;;;1.80;;
40515;SDS011;26216;53.724;9.898;2023-08-30T15:07:25;2.85;;;1.70;;
40515;SDS011;26216;53.724;9.898;2023-08-30T15:09:51;2.90;;;1.98;;
40515;SDS011;26216;53.724;9.898;2023-08-30T15:12:17;5.00;;;1.90;;
40515;SDS011;26216;53.724;9.898;2023-08-30T15:14:43;2.88;;;1.60;;
40515;SDS011;26216;53.724;9.898;2023-08-30T15:17:09;2.55;;;1.80;;
40515;SDS011;26216;53.724;9.898;2023-08-30T15:19:35;1.83;;;1.58;;
40515;SDS011;26216;53.724;9.898;2023-08-30T15:22:01;2.80;;;1.80;;
40515;SDS011;26216;53.724;9.898;2023-08-30T15:24:27;3.08;;;2.00;;
40515;SDS011;26216;53.724;9.898;2023-08-30T15:26:53;2.75;;;1.73;;
40515;SDS011;26216;53.724;9.898;2023-08-30T15:29:19;2.30;;;1.70;;
40515;SDS011;26216;53.724;9.898;2023-08-30T15:31:45;3.50;;;2.00;;